createdAt,value
2019-06-01T00:00:35.260Z,6.12
2019-06-01T00:03:07.409Z,6.15
2019-06-01T00:05:40.723Z,6.42
2019-06-01T00:08:16.778Z,6.50
2019-06-01T00:10:49.339Z,6.40
2019-06-01T00:13:31.546Z,6.75
2019-06-01T00:16:02.803Z,6.83
2019-06-01T00:18:34.910Z,7.05
2019-06-01T00:21:06.039Z,6.53
2019-06-01T00:23:38.291Z,6.28
2019-06-01T00:26:12.182Z,6.15
2019-06-01T00:28:45.709Z,6.50
2019-06-01T00:31:24.323Z,7.20
2019-06-01T00:33:57.149Z,6.33
2019-06-01T00:39:41.561Z,8.35
2019-06-01T00:42:15.533Z,10.10
2019-06-01T00:44:46.807Z,13.98
2019-06-01T00:47:19.405Z,16.75
2019-06-01T00:49:52.951Z,13.68
2019-06-01T00:52:24.185Z,15.70
2019-06-01T00:54:58.967Z,11.15
2019-06-01T00:57:30.475Z,7.03
2019-06-01T01:00:02.032Z,6.62
2019-06-01T01:02:40.687Z,6.33
2019-06-01T01:15:06.050Z,7.17
2019-06-01T01:17:36.962Z,6.37
2019-06-01T01:20:11.291Z,6.33
2019-06-01T01:23:01.696Z,6.92
2019-06-01T01:28:46.715Z,6.12
2019-06-01T01:31:19.709Z,7.35
2019-06-01T01:33:54.132Z,6.12
2019-06-01T01:36:24.830Z,6.25
2019-06-01T01:38:56.296Z,6.35
2019-06-01T01:41:28.286Z,6.35
2019-06-01T01:43:59.722Z,6.12
2019-06-01T01:46:30.912Z,6.40
2019-06-01T01:52:26.215Z,6.47
2019-06-01T01:54:58.936Z,6.15
2019-06-01T01:57:37.942Z,5.95
2019-06-01T02:00:11.313Z,8.10
2019-06-01T02:02:44.782Z,6.40
2019-06-01T02:05:16.487Z,6.00
2019-06-01T02:07:50.865Z,6.17
2019-06-01T02:10:25.630Z,7.30
2019-06-01T02:12:57.537Z,7.33
2019-06-01T02:15:42.208Z,7.00
2019-06-01T02:18:15.365Z,6.78
2019-06-01T02:20:49.369Z,6.33
2019-06-01T02:23:19.922Z,6.78
2019-06-01T02:25:51.114Z,6.62
2019-06-01T02:30:59.793Z,6.60
2019-06-01T02:36:08.531Z,6.58
2019-06-01T02:38:41.253Z,6.05
2019-06-01T02:44:40.325Z,7.17
2019-06-01T02:47:12.408Z,7.55
2019-06-01T02:49:45.257Z,7.10
2019-06-01T02:52:19.057Z,6.97
2019-06-01T02:54:51.794Z,6.70
2019-06-01T02:57:31.707Z,7.55
2019-06-01T03:00:06.728Z,6.45
2019-06-01T03:02:37.444Z,6.67
2019-06-01T03:05:09.111Z,6.95
2019-06-01T03:07:42.444Z,6.17
2019-06-01T03:10:15.204Z,6.25
2019-06-01T03:12:47.610Z,6.70
2019-06-01T03:15:24.762Z,6.62
2019-06-01T03:17:59.413Z,6.85
2019-06-01T03:20:35.891Z,5.95
2019-06-01T03:23:09.613Z,5.83
2019-06-01T03:25:43.194Z,6.60
2019-06-01T03:28:16.755Z,6.53
2019-06-01T03:30:48.246Z,5.10
2019-06-01T03:33:19.515Z,8.90
2019-06-01T03:35:50.609Z,11.97
2019-06-01T03:38:21.819Z,11.60
2019-06-01T03:41:03.988Z,14.18
2019-06-01T03:43:56.081Z,7.00
2019-06-01T03:46:33.575Z,5.80
2019-06-01T03:49:13.649Z,4.58
2019-06-01T03:51:45.054Z,8.53
2019-06-01T03:54:16.109Z,12.45
2019-06-01T03:56:51.059Z,15.18
2019-06-01T03:59:24.289Z,14.33
2019-06-01T04:02:07.053Z,7.22
2019-06-01T04:04:38.670Z,5.62
2019-06-01T04:07:10.753Z,6.03
2019-06-01T04:09:50.146Z,5.92
2019-06-01T04:12:28.359Z,7.15
2019-06-01T04:15:10.093Z,12.78
2019-06-01T04:17:38.384Z,18.12
2019-06-01T04:20:14.246Z,9.93
2019-06-01T04:22:45.476Z,7.95
2019-06-01T04:25:18.592Z,6.83
2019-06-01T04:27:49.784Z,5.30
2019-06-01T04:30:26.048Z,5.17
2019-06-01T04:33:02.548Z,9.23
2019-06-01T04:35:35.067Z,10.50
2019-06-01T04:38:07.201Z,6.85
2019-06-01T04:40:38.404Z,13.55
2019-06-01T04:43:14.204Z,8.23
2019-06-01T04:45:48.784Z,6.00
2019-06-01T04:48:20.649Z,5.72
2019-06-01T04:50:52.224Z,6.15
2019-06-01T04:53:23.097Z,8.75
2019-06-01T04:55:54.319Z,8.90
2019-06-01T04:58:26.604Z,10.60
2019-06-01T05:00:59.835Z,12.75
2019-06-01T05:03:30.208Z,6.05
2019-06-01T05:06:03.195Z,4.08
2019-06-01T05:08:35.223Z,3.45
2019-06-01T05:11:15.573Z,4.37
2019-06-01T05:13:46.620Z,13.85
2019-06-01T05:16:17.566Z,13.58
2019-06-01T05:18:48.603Z,12.30
2019-06-01T05:21:19.561Z,12.82
2019-06-01T05:23:50.739Z,4.62
2019-06-01T05:26:21.542Z,3.95
2019-06-01T05:28:52.664Z,4.40
2019-06-01T05:31:27.177Z,4.25
2019-06-01T05:33:59.496Z,6.62
2019-06-01T05:36:32.226Z,10.80
2019-06-01T05:39:03.520Z,10.65
2019-06-01T05:41:43.024Z,9.08
2019-06-01T05:44:19.509Z,4.80
2019-06-01T05:46:50.875Z,4.30
2019-06-01T05:49:23.196Z,3.77
2019-06-01T05:51:54.845Z,6.65
2019-06-01T05:54:27.211Z,7.90
2019-06-01T05:56:58.179Z,12.28
2019-06-01T05:59:30.413Z,13.45
2019-06-01T06:02:01.348Z,9.35
2019-06-01T06:04:37.407Z,5.30
2019-06-01T06:07:08.970Z,4.50
2019-06-01T06:09:40.385Z,3.33
2019-06-01T06:12:11.415Z,7.40
2019-06-01T06:14:48.831Z,11.78
2019-06-01T06:17:23.575Z,9.78
2019-06-01T06:19:54.140Z,7.55
2019-06-01T06:22:25.467Z,6.00
2019-06-01T06:24:56.898Z,4.83
2019-06-01T06:27:28.137Z,3.75
2019-06-01T06:29:59.227Z,4.50
2019-06-01T06:32:31.041Z,7.35
2019-06-01T06:35:03.384Z,9.53
2019-06-01T06:37:35.019Z,7.25
2019-06-01T06:40:08.819Z,7.33
2019-06-01T06:42:40.197Z,5.08
2019-06-01T06:45:14.594Z,2.87
2019-06-01T06:47:45.874Z,2.75
2019-06-01T06:50:19.372Z,3.17
2019-06-01T06:52:51.312Z,7.87
2019-06-01T06:55:32.002Z,9.25
2019-06-01T06:58:02.742Z,8.20
2019-06-01T07:00:33.840Z,9.88
2019-06-01T07:03:12.759Z,6.42
2019-06-01T07:05:46.311Z,3.50
2019-06-01T07:08:17.859Z,3.12
2019-06-01T07:10:48.997Z,3.58
2019-06-01T07:13:20.174Z,8.30
2019-06-01T07:15:54.987Z,9.85
2019-06-01T07:18:26.303Z,15.30
2019-06-01T07:20:57.588Z,11.25
2019-06-01T07:23:28.574Z,5.15
2019-06-01T07:25:59.447Z,5.10
2019-06-01T07:28:30.540Z,3.92
2019-06-01T07:31:08.480Z,4.80
2019-06-01T07:33:39.680Z,7.78
2019-06-01T07:36:10.895Z,9.08
2019-06-01T07:38:42.070Z,6.80
2019-06-01T07:41:13.223Z,7.97
2019-06-01T07:43:46.670Z,3.37
2019-06-01T07:46:19.168Z,3.40
2019-06-01T07:48:50.307Z,3.10
2019-06-01T07:51:21.180Z,2.70
2019-06-01T07:53:52.737Z,9.55
2019-06-01T07:56:26.638Z,9.83
2019-06-01T07:59:01.999Z,9.18
2019-06-01T08:11:32.934Z,3.12
2019-06-01T08:14:02.437Z,7.35
2019-06-01T08:16:36.349Z,11.38
2019-06-01T08:19:07.636Z,8.65
2019-06-01T08:21:38.698Z,7.80
2019-06-01T08:24:12.563Z,4.85
2019-06-01T08:26:46.541Z,3.33
2019-06-01T08:29:18.105Z,3.35
2019-06-01T08:31:55.913Z,6.22
2019-06-01T08:34:26.881Z,7.60
2019-06-01T08:36:58.281Z,10.98
2019-06-01T08:39:29.470Z,8.93
2019-06-01T08:42:00.933Z,7.55
2019-06-01T08:44:32.212Z,5.42
2019-06-01T08:47:07.430Z,6.58
2019-06-01T08:49:40.456Z,5.62
2019-06-01T08:52:11.546Z,10.10
2019-06-01T08:54:49.320Z,11.68
2019-06-01T08:57:20.734Z,13.28
2019-06-01T08:59:53.055Z,12.68
2019-06-01T09:02:24.548Z,8.18
2019-06-01T09:04:55.552Z,6.45
2019-06-01T09:07:29.591Z,7.30
2019-06-01T09:10:02.065Z,7.72
2019-06-01T09:12:33.365Z,6.55
2019-06-01T09:15:05.224Z,6.55
2019-06-01T09:17:36.858Z,6.05
2019-06-01T09:20:09.157Z,7.33
2019-06-01T09:22:41.681Z,6.80
2019-06-01T09:25:13.244Z,6.30
2019-06-01T09:27:44.432Z,6.65
2019-06-01T09:30:16.927Z,6.53
2019-06-01T09:32:48.576Z,6.55
2019-06-01T09:35:19.806Z,6.15
2019-06-01T09:37:53.534Z,6.40
2019-06-01T09:40:28.248Z,5.90
2019-06-01T09:42:56.924Z,5.90
2019-06-01T09:45:27.961Z,6.45
2019-06-01T09:47:59.605Z,6.28
2019-06-01T09:50:31.336Z,7.55
2019-06-01T09:53:02.604Z,7.20
2019-06-01T09:55:36.337Z,7.67
2019-06-01T09:58:07.718Z,8.00
2019-06-01T10:00:43.061Z,8.58
2019-06-01T10:03:12.413Z,8.35
2019-06-01T10:06:00.754Z,7.40
2019-06-01T10:08:19.585Z,8.10
2019-06-01T10:10:51.221Z,7.30
2019-06-01T10:13:22.528Z,7.15
2019-06-01T10:15:53.887Z,7.75
2019-06-01T10:18:27.014Z,7.47
2019-06-01T10:21:00.191Z,7.65
2019-06-01T10:23:32.370Z,7.17
2019-06-01T10:26:04.317Z,7.50
2019-06-01T10:28:37.646Z,7.97
2019-06-01T10:31:16.591Z,7.67
2019-06-01T10:33:52.446Z,8.50
2019-06-01T10:36:24.226Z,9.60
2019-06-01T10:38:59.068Z,9.48
2019-06-01T10:41:31.605Z,9.25
2019-06-01T10:44:03.134Z,8.63
2019-06-01T10:46:35.793Z,9.55
2019-06-01T10:49:06.892Z,9.00
2019-06-01T10:51:42.246Z,9.43
2019-06-01T10:54:13.386Z,8.03
2019-06-01T10:56:44.851Z,8.43
2019-06-01T10:59:16.375Z,7.55
2019-06-01T11:01:49.016Z,8.18
2019-06-01T11:04:20.424Z,7.20
2019-06-01T11:06:51.915Z,7.10
2019-06-01T11:09:23.147Z,7.78
2019-06-01T11:18:25.489Z,7.15
2019-06-01T11:20:56.591Z,6.50
2019-06-01T11:23:27.594Z,5.85
2019-06-01T11:25:59.832Z,5.60
2019-06-01T11:28:30.901Z,5.80
2019-06-01T11:31:02.125Z,5.78
2019-06-01T11:33:34.038Z,5.78
2019-06-01T11:36:05.293Z,6.30
2019-06-01T11:38:36.267Z,5.78
2019-06-01T11:41:07.305Z,6.50
2019-06-01T11:43:38.694Z,6.83
2019-06-01T11:46:09.928Z,4.85
2019-06-01T11:48:41.416Z,5.47
2019-06-01T11:51:12.263Z,5.05
2019-06-01T11:53:43.479Z,4.17
2019-06-01T11:56:14.608Z,4.42
2019-06-01T11:58:45.876Z,4.08
2019-06-01T12:01:16.990Z,4.50
2019-06-01T12:03:50.231Z,4.20
2019-06-01T12:06:21.241Z,4.17
2019-06-01T12:08:52.568Z,4.12
2019-06-01T12:11:23.617Z,4.12
2019-06-01T12:13:54.501Z,3.83
2019-06-01T12:16:25.915Z,4.20
2019-06-01T12:18:56.786Z,4.30
2019-06-01T12:21:27.471Z,3.60
2019-06-01T12:23:58.351Z,4.42
2019-06-01T12:26:29.277Z,4.50
2019-06-01T12:29:00.218Z,4.40
2019-06-01T12:31:31.855Z,4.55
2019-06-01T12:34:02.646Z,4.25
2019-06-01T12:36:34.391Z,4.70
2019-06-01T12:39:06.547Z,4.70
2019-06-01T12:41:37.430Z,4.75
2019-06-01T12:44:08.306Z,7.03
2019-06-01T12:46:41.620Z,5.42
2019-06-01T12:49:12.956Z,5.55
2019-06-01T12:51:44.533Z,5.25
2019-06-01T12:54:15.783Z,5.58
2019-06-01T12:56:49.332Z,4.25
2019-06-01T12:59:19.292Z,5.15
2019-06-01T13:01:51.290Z,4.90
2019-06-01T13:04:22.539Z,5.17
2019-06-01T13:06:54.182Z,5.37
2019-06-01T13:09:25.455Z,5.20
2019-06-01T13:11:56.676Z,5.50
2019-06-01T13:14:27.955Z,5.80
2019-06-01T13:17:06.702Z,5.67
2019-06-01T13:19:31.107Z,5.75
2019-06-01T13:22:02.319Z,5.47
2019-06-01T13:24:33.287Z,5.72
2019-06-01T13:27:04.096Z,5.67
2019-06-01T13:29:35.171Z,5.97
2019-06-01T13:32:06.406Z,5.72
2019-06-01T13:34:37.122Z,5.58
2019-06-01T13:37:08.986Z,6.00
2019-06-01T13:39:39.887Z,6.40
2019-06-01T13:42:11.272Z,5.25
2019-06-01T13:44:43.243Z,5.92
2019-06-01T13:47:17.480Z,5.60
2019-06-01T13:49:50.008Z,5.37
2019-06-01T13:52:20.634Z,5.30
2019-06-01T13:54:52.500Z,5.33
2019-06-01T13:57:25.876Z,5.53
2019-06-01T13:59:56.947Z,5.87
2019-06-01T14:02:27.669Z,5.35
2019-06-01T14:04:58.462Z,5.83
2019-06-01T14:07:29.448Z,5.08
2019-06-01T14:10:00.566Z,4.80
2019-06-01T14:12:31.600Z,5.22
2019-06-01T14:15:02.362Z,4.97
2019-06-01T14:17:33.606Z,5.03
2019-06-01T14:20:06.441Z,4.90
2019-06-01T14:22:38.744Z,4.95
2019-06-01T14:25:14.511Z,5.40
2019-06-01T14:27:45.972Z,4.97
2019-06-01T14:30:17.444Z,5.30
2019-06-01T14:32:48.804Z,4.92
2019-06-01T14:35:20.710Z,5.08
2019-06-01T14:37:53.214Z,5.80
2019-06-01T14:40:27.016Z,5.35
2019-06-01T14:42:58.112Z,5.53
2019-06-01T14:45:29.269Z,5.58
2019-06-01T14:48:00.413Z,6.17
2019-06-01T14:50:31.623Z,5.70
2019-06-01T14:53:03.041Z,5.17
2019-06-01T14:55:33.973Z,5.05
2019-06-01T14:58:05.038Z,5.60
2019-06-01T15:00:35.829Z,4.95
2019-06-01T15:03:07.368Z,6.20
2019-06-01T15:05:38.374Z,5.30
2019-06-01T15:08:09.596Z,5.25
2019-06-01T15:10:40.916Z,5.33
2019-06-01T15:13:13.352Z,5.40
2019-06-01T15:15:44.458Z,5.80
2019-06-01T15:18:15.414Z,6.20
2019-06-01T15:20:46.350Z,5.80
2019-06-01T15:23:17.581Z,6.10
2019-06-01T15:25:50.142Z,6.53
2019-06-01T15:28:20.997Z,6.25
2019-06-01T15:30:52.829Z,6.17
2019-06-01T15:33:23.953Z,6.87
2019-06-01T15:35:55.996Z,6.58
2019-06-01T15:38:27.285Z,7.22
2019-06-01T15:40:58.255Z,7.08
2019-06-01T15:43:29.228Z,6.47
2019-06-01T15:46:00.286Z,7.22
2019-06-01T15:48:31.340Z,7.62
2019-06-01T15:51:07.062Z,7.80
2019-06-01T15:53:34.814Z,7.45
2019-06-01T15:56:06.568Z,7.83
2019-06-01T15:58:51.817Z,7.03
2019-06-01T16:01:10.038Z,7.40
2019-06-01T16:03:41.007Z,15.80
2019-06-01T16:06:11.878Z,15.55
2019-06-01T16:08:42.798Z,8.33
2019-06-01T16:11:14.223Z,7.37
2019-06-01T16:13:45.399Z,7.40
2019-06-01T16:16:16.412Z,7.85
2019-06-01T16:18:48.903Z,7.62
2019-06-01T16:21:19.929Z,7.80
2019-06-01T16:23:50.989Z,6.85
2019-06-01T16:26:21.829Z,7.33
2019-06-01T16:28:54.221Z,7.50
2019-06-01T16:31:25.337Z,6.92
2019-06-01T16:33:56.579Z,7.05
2019-06-01T16:36:27.609Z,7.15
2019-06-01T16:39:02.826Z,7.85
2019-06-01T16:41:31.920Z,8.60
2019-06-01T16:44:03.759Z,8.70
2019-06-01T16:46:34.847Z,8.93
2019-06-01T16:49:06.159Z,8.98
2019-06-01T16:51:39.934Z,8.58
2019-06-01T16:54:11.926Z,8.95
2019-06-01T16:56:42.978Z,8.73
2019-06-01T16:59:13.958Z,8.73
2019-06-01T17:01:44.973Z,9.28
2019-06-01T17:04:21.931Z,8.63
2019-06-01T17:06:52.818Z,8.15
2019-06-01T17:09:23.989Z,7.33
2019-06-01T17:11:54.972Z,7.60
2019-06-01T17:14:25.918Z,6.85
2019-06-01T17:16:57.084Z,6.28
2019-06-01T17:19:27.997Z,6.20
2019-06-01T17:21:59.392Z,6.30
2019-06-01T17:24:31.717Z,6.92
2019-06-01T17:27:03.883Z,6.40
2019-06-01T17:29:35.287Z,6.30
2019-06-01T17:32:20.134Z,6.37
2019-06-01T17:34:43.088Z,6.35
2019-06-01T17:37:14.957Z,6.80
2019-06-01T17:39:45.955Z,6.65
2019-06-01T17:42:17.035Z,6.08
2019-06-01T17:44:47.889Z,6.20
2019-06-01T17:47:18.860Z,6.45
2019-06-01T17:49:49.943Z,6.90
2019-06-01T17:52:23.530Z,6.22
2019-06-01T17:54:54.660Z,6.67
2019-06-01T17:57:27.010Z,6.65
2019-06-01T17:59:57.893Z,6.60
2019-06-01T18:02:28.907Z,6.95
2019-06-01T18:04:59.941Z,6.20
2019-06-01T18:07:30.822Z,6.25
2019-06-01T18:10:02.434Z,7.60
2019-06-01T18:12:35.751Z,6.58
2019-06-01T18:15:10.741Z,6.20
2019-06-01T18:17:42.008Z,5.28
2019-06-01T18:20:15.452Z,6.20
2019-06-01T18:22:46.598Z,5.70
2019-06-01T18:25:20.091Z,6.62
2019-06-01T18:27:51.334Z,5.25
2019-06-01T18:30:23.906Z,6.05
2019-06-01T18:32:55.967Z,6.53
2019-06-01T18:35:27.290Z,6.00
2019-06-01T18:37:58.337Z,5.90
2019-06-01T18:40:29.519Z,5.95
2019-06-01T18:43:03.949Z,6.08
2019-06-01T18:45:38.090Z,6.47
2019-06-01T18:48:10.058Z,6.42
2019-06-01T18:50:41.175Z,7.00
2019-06-01T18:53:14.169Z,6.30
2019-06-01T18:55:45.013Z,6.12
2019-06-01T18:58:20.227Z,6.75
2019-06-01T19:00:51.396Z,6.87
2019-06-01T19:03:22.148Z,6.67
2019-06-01T19:05:53.240Z,7.10
2019-06-01T19:08:24.126Z,6.95
2019-06-01T19:10:55.082Z,6.45
2019-06-01T19:13:25.932Z,6.80
2019-06-01T19:15:56.938Z,6.90
2019-06-01T19:18:27.860Z,6.75
2019-06-01T19:21:00.063Z,6.70
2019-06-01T19:23:31.006Z,6.25
2019-06-01T19:26:01.845Z,6.42
2019-06-01T19:28:33.092Z,6.50
2019-06-01T19:31:04.332Z,6.10
2019-06-01T19:33:35.412Z,6.60
2019-06-01T19:36:06.930Z,7.17
2019-06-01T19:38:38.913Z,6.62
2019-06-01T19:41:10.942Z,6.30
2019-06-01T19:43:42.225Z,6.67
2019-06-01T19:46:13.966Z,6.72
2019-06-01T19:48:44.945Z,6.67
2019-06-01T19:51:16.760Z,6.78
2019-06-01T19:53:47.759Z,6.53
2019-06-01T19:56:20.503Z,5.80
2019-06-01T19:58:50.912Z,6.33
2019-06-01T20:01:22.703Z,6.50
2019-06-01T20:03:53.902Z,7.22
2019-06-01T20:06:25.043Z,6.40
2019-06-01T20:08:56.115Z,6.97
2019-06-01T20:11:27.230Z,6.58
2019-06-01T20:13:58.341Z,6.95
2019-06-01T20:16:29.316Z,7.20
2019-06-01T20:19:00.121Z,7.10
2019-06-01T20:21:31.148Z,6.80
2019-06-01T20:24:02.173Z,6.45
2019-06-01T20:26:42.063Z,6.62
2019-06-01T20:29:06.005Z,7.15
2019-06-01T20:31:37.172Z,6.58
2019-06-01T20:34:09.284Z,7.03
2019-06-01T20:36:40.335Z,6.83
2019-06-01T20:39:12.127Z,6.58
2019-06-01T20:41:43.307Z,6.60
2019-06-01T20:44:14.730Z,6.58
2019-06-01T20:46:45.771Z,6.67
2019-06-01T20:49:16.894Z,8.20
2019-06-01T20:51:48.056Z,7.45
2019-06-01T20:54:19.072Z,6.92
2019-06-01T20:56:50.218Z,6.92
2019-06-01T20:59:21.966Z,6.65
2019-06-01T21:01:53.444Z,6.58
2019-06-01T21:04:24.362Z,7.25
2019-06-01T21:06:55.289Z,7.15
2019-06-01T21:09:26.406Z,7.65
2019-06-01T21:11:57.276Z,6.87
2019-06-01T21:14:28.253Z,6.80
2019-06-01T21:16:59.155Z,6.92
2019-06-01T21:19:30.257Z,7.47
2019-06-01T21:22:01.288Z,7.42
2019-06-01T21:24:32.406Z,7.40
2019-06-01T21:27:03.445Z,7.50
2019-06-01T21:29:34.225Z,7.40
2019-06-01T21:32:05.191Z,7.97
2019-06-01T21:34:36.077Z,7.62
2019-06-01T21:37:07.226Z,8.10
2019-06-01T21:39:38.292Z,7.70
2019-06-01T21:42:12.274Z,7.42
2019-06-01T21:44:42.938Z,7.60
2019-06-01T21:47:13.814Z,7.62
2019-06-01T21:49:44.731Z,7.60
2019-06-01T21:52:15.820Z,7.83
2019-06-01T21:54:46.621Z,8.00
2019-06-01T21:57:18.071Z,7.50
2019-06-01T21:59:48.940Z,7.62
2019-06-01T22:02:20.952Z,8.35
2019-06-01T22:04:52.171Z,8.33
2019-06-01T22:07:23.350Z,8.45
2019-06-01T22:09:54.362Z,8.58
2019-06-01T22:12:25.774Z,8.35
2019-06-01T22:14:56.972Z,9.03
2019-06-01T22:17:29.053Z,8.63
2019-06-01T22:20:00.210Z,8.58
2019-06-01T22:22:31.201Z,8.38
2019-06-01T22:25:02.306Z,8.13
2019-06-01T22:27:45.846Z,9.10
2019-06-01T22:30:16.316Z,8.90
2019-06-01T22:32:49.071Z,8.90
2019-06-01T22:35:20.872Z,9.38
2019-06-01T22:37:51.954Z,10.13
2019-06-01T22:40:23.095Z,9.90
2019-06-01T22:42:53.936Z,10.15
2019-06-01T22:45:24.856Z,9.43
2019-06-01T22:47:58.242Z,9.68
2019-06-01T22:50:29.189Z,10.00
2019-06-01T22:53:00.208Z,9.75
2019-06-01T22:55:32.340Z,10.38
2019-06-01T22:58:03.671Z,9.88
2019-06-01T23:00:35.121Z,11.88
2019-06-01T23:03:06.282Z,9.88
2019-06-01T23:05:37.441Z,10.20
2019-06-01T23:08:08.355Z,10.85
2019-06-01T23:10:39.462Z,9.18
2019-06-01T23:13:10.769Z,9.75
2019-06-01T23:15:50.483Z,9.88
2019-06-01T23:18:21.663Z,10.10
2019-06-01T23:20:52.543Z,8.80
2019-06-01T23:23:24.094Z,9.18
2019-06-01T23:25:55.135Z,8.58
2019-06-01T23:28:26.310Z,8.95
2019-06-01T23:30:57.388Z,9.43
2019-06-01T23:33:28.899Z,9.80
2019-06-01T23:35:59.867Z,9.55
2019-06-01T23:38:30.839Z,9.75
2019-06-01T23:41:02.065Z,9.43
2019-06-01T23:43:32.976Z,9.43
2019-06-01T23:46:03.981Z,8.45
2019-06-01T23:48:34.946Z,8.48
2019-06-01T23:51:06.158Z,7.58
2019-06-01T23:53:37.301Z,7.45
2019-06-01T23:56:08.508Z,7.10
2019-06-01T23:58:39.376Z,6.50
